Time;durP1;ratioP1;P1;durP2;ratioP2;P2;SDS_P1;SDS_P2;PMS_P1;PMS_P2;Temp;Humidity;BMP_temperature;BMP_pressure;BME280_temperature;BME280_humidity;BME280_pressure;Samples;Min_cycle;Max_cycle;Signal;HPM_P1;HPM_P2
2021/03/08 00:01:22;;;;;;;23.62;9.73;;;;;;;0.31;80.21;99781.73;251353;1105;117070;-66
2021/03/08 00:06:26;;;;;;;15.93;9.48;;;;;;;0.33;80.73;99797.30;251927;1105;116821;-67
2021/03/08 00:11:31;;;;;;;17.80;9.08;;;;;;;0.36;80.68;99801.39;252391;1104;117287;-64
2021/03/08 00:16:34;;;;;;;21.65;10.75;;;;;;;0.36;80.23;99802.20;252028;1105;115874;-65
2021/03/08 00:21:39;;;;;;;13.25;8.53;;;;;;;0.42;80.41;99803.34;252529;1105;116263;-66
2021/03/08 00:26:42;;;;;;;10.60;7.70;;;;;;;0.45;79.38;99803.02;253003;1105;115644;-65
2021/03/08 00:31:50;;;;;;;10.13;7.03;;;;;;;0.51;78.39;99792.67;253437;1105;115801;-64
2021/03/08 00:36:54;;;;;;;12.30;6.28;;;;;;;0.48;78.10;99806.12;251913;1105;117053;-65
2021/03/08 00:41:58;;;;;;;9.65;6.47;;;;;;;0.55;78.07;99804.47;253646;1105;115317;-66
2021/03/08 00:47:02;;;;;;;10.63;5.27;;;;;;;0.51;77.66;99805.79;251712;1105;115630;-67
2021/03/08 00:52:06;;;;;;;11.65;6.53;;;;;;;0.51;77.59;99802.34;253143;1104;116087;-64
2021/03/08 00:57:10;;;;;;;7.90;5.10;;;;;;;0.54;77.83;99799.39;252561;1105;116794;-69
2021/03/08 01:02:13;;;;;;;7.05;5.85;;;;;;;0.56;77.35;99798.23;254414;1105;114644;-68
2021/03/08 01:07:17;;;;;;;11.75;6.35;;;;;;;0.55;77.58;99793.16;254643;1105;116068;-69
2021/03/08 01:12:22;;;;;;;8.95;5.65;;;;;;;0.62;76.51;99801.97;254774;1104;115611;-70
2021/03/08 01:17:25;;;;;;;10.85;7.10;;;;;;;0.62;76.28;99800.16;254676;1105;116268;-68
2021/03/08 01:22:29;;;;;;;12.88;4.97;;;;;;;0.63;77.14;99803.61;254480;1104;117770;-64
2021/03/08 01:27:33;;;;;;;7.95;4.75;;;;;;;0.64;76.68;99792.12;253482;1105;116974;-65
2021/03/08 01:32:37;;;;;;;5.67;3.37;;;;;;;0.63;76.41;99787.87;251923;1105;115748;-64
2021/03/08 01:37:42;;;;;;;10.08;5.45;;;;;;;0.58;76.26;99790.20;252061;1105;116246;-66
2021/03/08 01:42:46;;;;;;;7.87;4.55;;;;;;;0.57;76.14;99796.44;253095;1105;115409;-65
2021/03/08 01:47:51;;;;;;;7.78;4.47;;;;;;;0.54;77.38;99802.02;251970;1105;116903;-65
2021/03/08 01:52:56;;;;;;;9.23;4.28;;;;;;;0.53;76.55;99785.46;252697;1104;115506;-65
2021/03/08 01:58:00;;;;;;;6.12;5.40;;;;;;;0.49;77.03;99778.91;252180;1105;115557;-67
2021/03/08 02:03:06;;;;;;;9.05;4.53;;;;;;;0.45;76.24;99782.03;251784;1105;115945;-67
2021/03/08 02:08:12;;;;;;;10.97;6.03;;;;;;;0.44;76.48;99790.89;253130;1105;115693;-66
2021/03/08 02:13:25;;;;;;;10.10;4.28;;;;;;;0.43;78.02;99789.25;252814;1105;115501;-64
2021/03/08 02:18:49;;;;;;;14.18;5.62;;;;;;;0.40;76.73;99792.20;252560;1105;115797;-64
2021/03/08 02:24:24;;;;;;;7.50;3.90;;;;;;;0.43;77.67;99804.98;252538;1105;115483;-63
2021/03/08 02:29:34;;;;;;;5.12;3.80;;;;;;;0.32;77.62;99806.97;253463;1105;115937;-63
2021/03/08 02:34:47;;;;;;;12.78;5.15;;;;;;;0.32;77.63;99809.59;252281;1104;115351;-65
2021/03/08 02:39:54;;;;;;;6.15;4.70;;;;;;;0.16;76.29;99808.81;253008;1105;115120;-67
2021/03/08 02:45:01;;;;;;;7.15;3.20;;;;;;;-0.14;77.79;99813.75;252935;1105;115174;-64
2021/03/08 02:50:06;;;;;;;4.10;2.67;;;;;;;-0.39;78.35;99819.95;252846;1105;114647;-64
2021/03/08 02:55:12;;;;;;;2.92;2.50;;;;;;;-0.52;78.52;99824.84;253795;1105;114656;-65
2021/03/08 03:00:17;;;;;;;11.10;4.17;;;;;;;-0.60;78.83;99830.88;253640;1105;114621;-66
2021/03/08 03:05:21;;;;;;;8.80;5.45;;;;;;;-0.66;78.79;99828.92;254206;1104;116039;-67
2021/03/08 03:10:28;;;;;;;6.67;5.47;;;;;;;-0.75;79.23;99835.92;254839;1104;116194;-64
2021/03/08 03:15:36;;;;;;;12.88;5.03;;;;;;;-0.80;79.05;99846.05;254847;1105;116478;-67
2021/03/08 03:20:41;;;;;;;10.60;5.40;;;;;;;-0.84;79.25;99849.13;254514;1104;116743;-66
2021/03/08 03:25:45;;;;;;;10.08;4.80;;;;;;;-0.87;79.01;99849.45;254906;1104;116516;-67
2021/03/08 03:30:50;;;;;;;7.22;3.65;;;;;;;-0.88;78.07;99855.66;254615;1104;116441;-66
2021/03/08 03:35:55;;;;;;;8.40;6.12;;;;;;;-0.95;78.77;99860.73;253622;1105;116124;-66
2021/03/08 03:41:00;;;;;;;10.82;4.75;;;;;;;-1.00;78.69;99862.99;252044;1105;118300;-68
2021/03/08 03:46:06;;;;;;;12.30;5.28;;;;;;;-1.09;79.11;99863.92;252562;1104;115416;-67
2021/03/08 03:51:11;;;;;;;12.33;6.17;;;;;;;-1.19;78.98;99889.38;253540;1105;115750;-66
2021/03/08 03:56:18;;;;;;;7.75;5.80;;;;;;;-1.32;78.74;99881.96;252985;1105;115298;-67
2021/03/08 04:01:28;;;;;;;12.20;6.35;;;;;;;-1.41;78.60;99882.88;252836;1105;114949;-66
2021/03/08 04:06:37;;;;;;;8.55;5.72;;;;;;;-1.54;79.63;99885.10;252942;1105;115912;-67
2021/03/08 04:11:42;;;;;;;6.85;5.58;;;;;;;-1.64;79.42;99894.82;252602;1104;115261;-67
2021/03/08 04:16:49;;;;;;;10.35;6.08;;;;;;;-1.81;79.35;99905.13;252266;1105;114792;-67
2021/03/08 04:22:01;;;;;;;9.33;5.58;;;;;;;-1.94;80.51;99906.51;251931;1105;114820;-67
2021/03/08 04:27:06;;;;;;;7.62;5.42;;;;;;;-2.06;79.74;99917.17;252672;1104;114882;-66
2021/03/08 04:32:12;;;;;;;9.67;5.37;;;;;;;-2.15;80.95;99930.33;251864;1105;115540;-67
2021/03/08 04:37:17;;;;;;;10.13;4.65;;;;;;;-2.24;80.43;99939.04;252663;1105;115236;-66
2021/03/08 04:42:21;;;;;;;7.80;5.62;;;;;;;-2.28;80.57;99932.46;252266;1105;115189;-67
2021/03/08 04:47:25;;;;;;;9.53;5.33;;;;;;;-2.32;79.73;99931.94;252107;1105;115511;-67
2021/03/08 04:52:31;;;;;;;8.98;5.17;;;;;;;-2.37;80.26;99953.25;252609;1104;114778;-67
2021/03/08 04:57:36;;;;;;;10.23;6.12;;;;;;;-2.35;82.07;99950.50;253198;1105;115495;-67
2021/03/08 05:02:43;;;;;;;9.93;4.95;;;;;;;-2.32;82.15;99947.59;252966;1105;114833;-67
2021/03/08 05:07:57;;;;;;;8.00;4.50;;;;;;;-2.28;81.32;99953.35;254146;1104;115239;-67
2021/03/08 05:13:01;;;;;;;11.48;5.60;;;;;;;-2.25;81.83;99958.28;253950;1104;116310;-67
2021/03/08 05:18:05;;;;;;;9.33;6.03;;;;;;;-2.25;79.87;99968.73;254675;1104;114995;-68
2021/03/08 05:23:09;;;;;;;7.58;4.75;;;;;;;-2.26;80.77;99964.47;254754;1104;115286;-67
2021/03/08 05:28:16;;;;;;;11.53;5.45;;;;;;;-2.17;81.02;99968.83;254660;1104;115405;-67
2021/03/08 05:33:30;;;;;;;12.78;6.10;;;;;;;-2.09;81.04;99969.70;254570;1105;115516;-66
2021/03/08 05:38:34;;;;;;;9.28;4.28;;;;;;;-2.06;80.24;99968.59;254791;1105;114714;-66
2021/03/08 05:43:37;;;;;;;9.43;5.37;;;;;;;-1.98;79.92;99979.13;254121;1104;115391;-65
2021/03/08 05:49:19;;;;;;;13.20;4.75;;;;;;;-1.93;80.62;99983.91;254212;1105;115373;-65
2021/03/08 05:54:46;;;;;;;6.33;5.23;;;;;;;-1.95;79.07;99984.06;252957;1105;114938;-65
2021/03/08 06:00:19;;;;;;;11.85;7.08;;;;;;;-1.96;81.50;99990.25;254025;1105;115359;-64
2021/03/08 06:05:38;;;;;;;11.78;6.70;;;;;;;-1.94;80.99;99997.94;252862;1104;115032;-65
2021/03/08 06:10:47;;;;;;;17.27;7.43;;;;;;;-1.94;80.82;100009.22;253127;1104;116822;-65
2021/03/08 06:15:59;;;;;;;14.93;8.28;;;;;;;-1.84;79.84;100020.44;252489;1105;115665;-65
2021/03/08 06:21:04;;;;;;;11.40;6.60;;;;;;;-1.68;80.73;100032.00;252251;1105;115593;-67
2021/03/08 06:26:10;;;;;;;9.60;5.50;;;;;;;-1.56;79.76;100038.66;252392;1105;115538;-65
2021/03/08 06:31:14;;;;;;;10.78;6.12;;;;;;;-1.50;80.05;100043.27;252916;1105;115155;-66
2021/03/08 06:36:35;;;;;;;9.83;5.33;;;;;;;-1.41;79.01;100048.43;251803;1104;115642;-67
2021/03/08 06:41:39;;;;;;;9.25;7.60;;;;;;;-1.31;79.29;100060.61;252108;1105;114866;-68
2021/03/08 06:46:44;;;;;;;13.97;7.90;;;;;;;-1.21;78.98;100062.16;252525;1104;115192;-66
2021/03/08 06:52:17;;;;;;;7.83;4.75;;;;;;;-1.06;76.92;100062.45;252597;1105;114888;-67
2021/03/08 06:57:28;;;;;;;8.25;4.95;;;;;;;-0.63;75.56;100068.64;252564;1105;115521;-69
2021/03/08 07:02:43;;;;;;;10.70;5.87;;;;;;;0.08;72.76;100090.08;252368;1105;115562;-68
2021/03/08 07:07:52;;;;;;;3.95;3.58;;;;;;;0.54;71.57;100075.63;253230;1104;115346;-70
2021/03/08 07:12:56;;;;;;;10.82;5.80;;;;;;;1.45;68.58;100072.80;253427;1104;115667;-68
2021/03/08 07:17:59;;;;;;;6.65;4.70;;;;;;;2.47;64.05;100082.38;254551;1104;115058;-68
2021/03/08 07:23:07;;;;;;;8.58;5.55;;;;;;;2.69;61.87;100093.94;254587;1105;115466;-67
2021/03/08 07:28:12;;;;;;;8.45;5.70;;;;;;;2.66;61.00;100104.81;254508;1105;115317;-66
2021/03/08 07:33:16;;;;;;;11.97;7.17;;;;;;;2.50;62.27;100099.64;254737;1103;115480;-67
2021/03/08 07:38:32;;;;;;;9.08;5.50;;;;;;;2.46;62.76;100098.34;254210;1105;115632;-67
2021/03/08 07:43:36;;;;;;;1.92;1.72;;;;;;;2.14;56.91;100092.25;253631;1104;115953;-69
2021/03/08 07:48:45;;;;;;;4.30;3.95;;;;;;;2.35;57.42;100089.87;253775;1105;114613;-69
2021/03/08 07:54:09;;;;;;;5.80;4.10;;;;;;;2.34;56.73;100109.27;254463;1104;114561;-69
2021/03/08 07:59:12;;;;;;;4.65;2.55;;;;;;;2.24;55.87;100115.73;253120;1105;116067;-69
2021/03/08 08:04:15;;;;;;;6.40;2.90;;;;;;;2.05;57.12;100109.08;253251;1105;115311;-70
2021/03/08 08:09:21;;;;;;;3.62;3.08;;;;;;;1.72;57.99;100113.62;252561;1105;114873;-69
2021/03/08 08:14:26;;;;;;;3.45;2.10;;;;;;;1.50;58.88;100120.41;252327;1105;114741;-69
2021/03/08 08:19:32;;;;;;;4.75;2.65;;;;;;;1.52;59.65;100122.88;252304;1105;115283;-68
2021/03/08 08:24:36;;;;;;;6.53;3.00;;;;;;;1.43;57.98;100124.69;252275;1105;115913;-67
2021/03/08 08:29:41;;;;;;;5.92;4.15;;;;;;;1.32;56.38;100132.89;251688;1105;115155;-69
2021/03/08 08:34:49;;;;;;;3.22;1.87;;;;;;;1.61;56.27;100129.73;253113;1104;114870;-68
2021/03/08 08:39:52;;;;;;;2.27;1.57;;;;;;;1.80;53.89;100128.56;252186;1105;115479;-70
2021/03/08 08:44:57;;;;;;;6.23;3.10;;;;;;;1.86;53.44;100133.94;251800;1105;115028;-69
2021/03/08 08:50:08;;;;;;;3.58;2.85;;;;;;;1.92;55.19;100137.70;252488;1104;116166;-68
2021/03/08 08:55:14;;;;;;;2.33;1.95;;;;;;;1.89;54.94;100141.49;252526;1105;114830;-68
2021/03/08 09:00:21;;;;;;;4.30;2.10;;;;;;;2.01;54.43;100144.59;253677;1103;115832;-69
2021/03/08 09:05:27;;;;;;;3.87;2.08;;;;;;;2.26;53.67;100150.57;252850;1104;128302;-69
2021/03/08 09:10:34;;;;;;;4.87;2.37;;;;;;;2.53;52.25;100144.03;251631;1105;114987;-70
2021/03/08 09:15:37;;;;;;;3.63;1.77;;;;;;;2.91;55.72;100148.41;251551;1105;116525;-68
2021/03/08 09:20:43;;;;;;;4.33;2.72;;;;;;;2.72;52.10;100151.50;252802;1105;115284;-69
2021/03/08 09:25:55;;;;;;;5.53;2.42;;;;;;;2.69;51.96;100159.75;251677;1105;115718;-69
2021/03/08 09:30:58;;;;;;;6.85;3.02;;;;;;;2.65;54.44;100161.90;252116;1104;115683;-68
2021/03/08 09:36:02;;;;;;;5.93;3.30;;;;;;;2.67;55.36;100165.18;253314;1104;116703;-69
2021/03/08 09:41:05;;;;;;;4.03;1.17;;;;;;;2.90;54.89;100162.56;253346;1105;115661;-65
2021/03/08 09:46:18;;;;;;;2.62;1.05;;;;;;;3.18;50.74;100167.30;255002;1104;116459;-65
2021/03/08 09:51:22;;;;;;;2.10;1.77;;;;;;;3.61;50.69;100166.62;254589;1104;117869;-65
2021/03/08 09:56:27;;;;;;;4.22;1.87;;;;;;;3.49;44.26;100169.85;254688;1105;116617;-65
2021/03/08 10:01:32;;;;;;;1.60;1.00;;;;;;;3.19;48.87;100171.58;254533;1105;116459;-66
2021/03/08 10:06:37;;;;;;;2.75;1.47;;;;;;;2.91;48.92;100168.66;251823;1105;116836;-64
2021/03/08 10:11:41;;;;;;;3.95;2.22;;;;;;;3.22;48.55;100181.77;253440;1104;116307;-65
2021/03/08 10:16:45;;;;;;;1.90;1.60;;;;;;;3.02;49.65;100186.70;253824;1104;116316;-66
2021/03/08 10:21:49;;;;;;;4.20;1.70;;;;;;;2.83;47.93;100192.39;252348;1105;117145;-64
2021/03/08 10:26:52;;;;;;;5.37;1.90;;;;;;;2.85;49.88;100191.23;252449;1105;115762;-64
2021/03/08 10:32:00;;;;;;;3.67;1.37;;;;;;;3.23;48.75;100197.40;251946;1105;116514;-64
2021/03/08 10:37:05;;;;;;;2.50;1.42;;;;;;;3.10;47.19;100198.97;252733;1105;114972;-63
2021/03/08 10:42:09;;;;;;;3.43;1.23;;;;;;;3.02;46.53;100203.31;252489;1105;119529;-64
2021/03/08 10:47:14;;;;;;;3.85;1.30;;;;;;;3.14;48.82;100202.89;251742;1105;116242;-64
2021/03/08 10:52:19;;;;;;;3.20;1.87;;;;;;;3.23;49.87;100204.48;252162;1105;116239;-67
2021/03/08 10:57:25;;;;;;;3.77;2.30;;;;;;;3.72;47.54;100189.08;252383;1105;116154;-65
2021/03/08 11:02:35;;;;;;;3.90;2.67;;;;;;;4.35;46.49;100180.64;253126;1104;116782;-67
2021/03/08 11:07:40;;;;;;;2.75;1.10;;;;;;;4.40;44.43;100194.11;252667;1105;116708;-64
2021/03/08 11:12:43;;;;;;;2.30;1.15;;;;;;;4.03;45.16;100192.38;253547;1105;115994;-64
2021/03/08 11:17:47;;;;;;;2.77;1.20;;;;;;;3.87;45.12;100205.75;251790;1105;115772;-63
2021/03/08 11:23:04;;;;;;;1.30;0.98;;;;;;;3.68;43.53;100201.79;253258;1104;115789;-64
2021/03/08 11:28:13;;;;;;;1.97;1.00;;;;;;;3.70;44.42;100206.89;253553;1105;118266;-64
2021/03/08 11:33:18;;;;;;;0.60;0.60;;;;;;;3.62;45.88;100210.44;252852;1105;117387;-66
2021/03/08 11:38:24;;;;;;;3.45;1.32;;;;;;;3.70;44.95;100205.07;252893;1105;118177;-64
2021/03/08 11:43:27;;;;;;;1.42;1.32;;;;;;;3.64;44.72;100211.08;254184;1104;116874;-66
2021/03/08 11:48:33;;;;;;;2.17;1.52;;;;;;;3.64;44.80;100204.99;254138;1105;115902;-65
2021/03/08 11:53:36;;;;;;;3.35;1.00;;;;;;;3.56;46.30;100197.97;254848;1105;115434;-66
2021/03/08 11:58:40;;;;;;;1.92;0.80;;;;;;;3.53;41.88;100195.68;254573;1105;115593;-65
2021/03/08 12:03:44;;;;;;;2.75;1.35;;;;;;;3.45;46.02;100205.47;254915;1104;114757;-65
2021/03/08 12:08:47;;;;;;;2.58;1.05;;;;;;;2.75;50.86;100216.97;254790;1105;115701;-65
2021/03/08 12:13:50;;;;;;;7.60;1.67;;;;;;;2.70;50.69;100225.38;254425;1105;116060;-65
2021/03/08 12:18:53;;;;;;;3.62;1.57;;;;;;;2.66;52.32;100224.08;253156;1105;117513;-67
2021/03/08 12:23:57;;;;;;;2.22;1.02;;;;;;;2.75;52.24;100219.61;252369;1105;118353;-64
2021/03/08 12:29:01;;;;;;;5.83;1.87;;;;;;;2.79;51.96;100212.16;252558;1105;116931;-65
2021/03/08 12:34:04;;;;;;;1.75;1.00;;;;;;;2.84;52.69;100213.28;253040;1104;116558;-67
2021/03/08 12:39:06;;;;;;;3.20;2.02;;;;;;;2.80;53.11;100219.87;252841;1105;115903;-65
2021/03/08 12:44:09;;;;;;;2.53;0.60;;;;;;;2.79;51.46;100228.77;251818;1105;115637;-63
2021/03/08 12:49:13;;;;;;;1.72;1.62;;;;;;;2.85;53.29;100222.82;252485;1105;115486;-67
2021/03/08 12:54:17;;;;;;;2.83;1.72;;;;;;;2.73;52.14;100221.59;252240;1105;115210;-63
2021/03/08 12:59:22;;;;;;;6.15;2.15;;;;;;;2.74;53.41;100225.86;252940;1104;115452;-61
2021/03/08 13:04:25;;;;;;;5.70;2.35;;;;;;;2.84;53.88;100228.26;252585;1104;119029;-67
2021/03/08 13:09:28;;;;;;;3.00;1.27;;;;;;;2.91;51.63;100222.14;253021;1105;115535;-66
2021/03/08 13:14:33;;;;;;;1.15;1.05;;;;;;;2.98;50.12;100232.80;252984;1104;116124;-66
2021/03/08 13:19:38;;;;;;;0.82;0.82;;;;;;;3.01;48.38;100233.28;253064;1105;114918;-63
2021/03/08 13:24:41;;;;;;;2.77;1.33;;;;;;;3.02;48.62;100232.29;252628;1105;114817;-63
2021/03/08 13:29:44;;;;;;;2.40;1.80;;;;;;;3.25;48.20;100224.39;251251;1105;115824;-63
2021/03/08 13:34:49;;;;;;;2.67;1.02;;;;;;;3.68;48.25;100220.25;252304;1105;115396;-66
2021/03/08 13:39:52;;;;;;;2.77;1.25;;;;;;;3.87;49.09;100223.39;254121;1104;114760;-62
2021/03/08 13:44:56;;;;;;;1.07;0.95;;;;;;;3.99;48.99;100227.22;252009;1105;115521;-66
2021/03/08 13:49:59;;;;;;;3.72;2.27;;;;;;;3.95;47.79;100223.33;254851;1105;115112;-66
2021/03/08 13:55:05;;;;;;;1.85;0.90;;;;;;;4.00;45.26;100223.58;254339;1105;115651;-65
2021/03/08 14:00:09;;;;;;;2.10;1.20;;;;;;;4.04;44.78;100225.68;254866;1104;115952;-64
2021/03/08 14:05:14;;;;;;;5.40;1.43;;;;;;;3.69;46.82;100235.07;254549;1105;114739;-64
2021/03/08 14:10:17;;;;;;;3.67;1.77;;;;;;;3.42;46.38;100245.34;254404;1105;114882;-64
2021/03/08 14:15:21;;;;;;;3.98;1.77;;;;;;;3.32;46.57;100238.52;253217;1105;115381;-64
2021/03/08 14:20:25;;;;;;;3.92;1.87;;;;;;;3.18;48.21;100243.70;252983;1105;115568;-67
2021/03/08 14:25:29;;;;;;;1.82;1.02;;;;;;;2.92;47.18;100250.11;252811;1104;116429;-64
2021/03/08 14:30:33;;;;;;;4.35;2.02;;;;;;;2.93;50.11;100246.48;253079;1105;117027;-63
2021/03/08 14:35:43;;;;;;;3.45;1.65;;;;;;;2.89;49.55;100249.63;252690;1105;116506;-63
2021/03/08 14:40:46;;;;;;;1.27;1.20;;;;;;;2.79;48.92;100249.83;253450;1104;117193;-62
2021/03/08 14:45:50;;;;;;;3.60;1.98;;;;;;;2.81;46.89;100253.12;253230;1105;115480;-63
2021/03/08 14:51:05;;;;;;;4.70;2.40;;;;;;;2.69;48.89;100244.80;252607;1104;115814;-66
2021/03/08 14:56:14;;;;;;;4.37;2.02;;;;;;;2.68;49.55;100255.50;251610;1105;120979;-64
2021/03/08 15:01:19;;;;;;;6.10;2.45;;;;;;;2.62;50.76;100258.80;252154;1105;116413;-65
2021/03/08 15:06:23;;;;;;;3.35;2.30;;;;;;;2.47;51.71;100263.94;251907;1105;115557;-67
2021/03/08 15:11:49;;;;;;;3.70;1.65;;;;;;;2.31;54.85;100264.83;252575;1105;116281;-63
2021/03/08 15:16:53;;;;;;;7.03;2.87;;;;;;;2.18;56.30;100280.30;252182;1105;117656;-64
2021/03/08 15:22:00;;;;;;;3.42;2.42;;;;;;;2.02;53.96;100278.52;251625;1104;118569;-66
2021/03/08 15:27:04;;;;;;;7.58;3.30;;;;;;;2.00;53.60;100277.87;253246;1105;116839;-66
2021/03/08 15:32:10;;;;;;;7.97;3.33;;;;;;;1.96;54.42;100273.10;252482;1105;116495;-66
2021/03/08 15:37:14;;;;;;;7.42;4.30;;;;;;;1.95;52.58;100267.02;251448;1105;116291;-68
2021/03/08 15:42:18;;;;;;;6.12;3.80;;;;;;;1.95;52.55;100277.53;251968;1105;116316;-65
2021/03/08 15:47:21;;;;;;;4.87;3.33;;;;;;;1.94;54.30;100280.33;251616;1105;116681;-67
2021/03/08 15:52:34;;;;;;;4.72;2.45;;;;;;;1.84;54.04;100272.61;252482;1104;116383;-64
2021/03/08 15:57:38;;;;;;;2.37;1.27;;;;;;;1.68;52.38;100276.07;253784;1105;118203;-65
2021/03/08 16:02:41;;;;;;;4.95;3.83;;;;;;;1.71;51.33;100274.11;254658;1105;116973;-64
2021/03/08 16:07:45;;;;;;;6.47;4.53;;;;;;;1.72;51.08;100276.56;254565;1105;116604;-64
2021/03/08 16:12:48;;;;;;;4.65;2.60;;;;;;;1.66;50.80;100283.30;253319;1104;115260;-66
2021/03/08 16:17:53;;;;;;;3.20;2.27;;;;;;;1.64;50.09;100284.44;253161;1104;116452;-64
2021/03/08 16:22:57;;;;;;;6.92;2.62;;;;;;;1.58;52.12;100291.16;251681;1105;116340;-65
2021/03/08 16:28:03;;;;;;;8.53;2.95;;;;;;;1.51;50.80;100284.13;252172;1105;117253;-61
2021/03/08 16:33:10;;;;;;;4.12;3.15;;;;;;;1.42;51.94;100293.79;253133;1105;116464;-64
2021/03/08 16:38:16;;;;;;;6.65;3.00;;;;;;;1.28;52.92;100305.73;252053;1105;116184;-65
2021/03/08 16:43:20;;;;;;;6.30;4.42;;;;;;;1.14;54.14;100306.38;251643;1105;116510;-64
2021/03/08 16:48:24;;;;;;;9.68;6.12;;;;;;;0.97;57.48;100307.28;251518;1105;116293;-69
2021/03/08 16:53:30;;;;;;;17.57;8.93;;;;;;;0.88;56.08;100309.08;251656;1104;115297;-65
2021/03/08 16:58:35;;;;;;;5.85;4.72;;;;;;;0.85;54.83;100319.06;252122;1104;115409;-65
2021/03/08 17:03:39;;;;;;;8.70;5.70;;;;;;;0.86;54.29;100328.59;252285;1105;116438;-66
2021/03/08 17:08:43;;;;;;;9.88;4.33;;;;;;;0.86;56.04;100331.21;252346;1105;114947;-65
2021/03/08 17:13:47;;;;;;;9.18;5.08;;;;;;;0.82;54.51;100335.95;251710;1105;115717;-64
2021/03/08 17:18:51;;;;;;;5.87;4.20;;;;;;;0.85;55.81;100340.06;252107;1105;115851;-64
2021/03/08 17:23:55;;;;;;;7.47;4.00;;;;;;;0.82;59.09;100341.20;251498;1105;115411;-64
2021/03/08 17:28:59;;;;;;;6.37;3.70;;;;;;;0.71;56.95;100332.77;252105;1105;115285;-62
2021/03/08 17:34:03;;;;;;;7.80;4.00;;;;;;;0.58;61.56;100344.53;252784;1105;139676;-64
2021/03/08 17:39:07;;;;;;;9.60;3.83;;;;;;;0.48;57.52;100361.34;253128;1105;115395;-65
2021/03/08 17:44:11;;;;;;;18.67;6.12;;;;;;;0.41;58.29;100349.81;252848;1105;115746;-65
2021/03/08 17:49:15;;;;;;;8.28;4.72;;;;;;;0.32;61.27;100362.04;252185;1104;115118;-66
2021/03/08 17:54:21;;;;;;;8.95;5.70;;;;;;;0.20;62.53;100371.97;254651;1104;115706;-64
2021/03/08 17:59:25;;;;;;;10.45;5.58;;;;;;;0.08;59.63;100373.17;254456;1104;115689;-65
2021/03/08 18:04:30;;;;;;;10.00;5.40;;;;;;;-0.03;58.75;100374.25;254261;1104;116182;-65
2021/03/08 18:09:33;;;;;;;13.60;6.05;;;;;;;-0.14;61.58;100384.95;254777;1104;117503;-66
2021/03/08 18:14:37;;;;;;;20.82;6.85;;;;;;;-0.30;62.15;100386.58;254762;1104;118236;-66
2021/03/08 18:19:41;;;;;;;12.45;6.42;;;;;;;-0.48;62.85;100381.33;253950;1105;118218;-67
2021/03/08 18:24:46;;;;;;;9.97;6.53;;;;;;;-0.64;61.62;100389.03;253927;1105;117775;-67
2021/03/08 18:29:50;;;;;;;17.17;8.33;;;;;;;-0.76;62.10;100386.59;253270;1105;115983;-66
2021/03/08 18:34:53;;;;;;;37.37;15.17;;;;;;;-0.90;63.54;100386.24;253149;1105;116621;-66
2021/03/08 18:39:57;;;;;;;67.97;19.50;;;;;;;-1.06;65.13;100387.70;252839;1104;115457;-66
2021/03/08 18:45:01;;;;;;;37.13;14.90;;;;;;;-1.15;66.42;100388.55;251742;1105;116916;-63
2021/03/08 18:50:07;;;;;;;43.80;14.43;;;;;;;-1.22;67.24;100387.47;252734;1104;118185;-64
2021/03/08 18:55:10;;;;;;;36.40;12.30;;;;;;;-1.30;67.26;100400.46;252964;1105;118083;-65
2021/03/08 19:00:14;;;;;;;29.30;12.98;;;;;;;-1.34;66.81;100398.27;252697;1104;117142;-66
2021/03/08 19:05:18;;;;;;;20.35;11.48;;;;;;;-1.35;68.38;100394.83;251400;1105;117042;-62
2021/03/08 19:10:21;;;;;;;24.00;11.57;;;;;;;-1.38;67.50;100397.72;251834;1105;117010;-65
2021/03/08 19:15:26;;;;;;;20.75;11.85;;;;;;;-1.42;68.12;100401.58;252227;1105;116169;-64
2021/03/08 19:20:32;;;;;;;45.52;18.12;;;;;;;-1.49;67.78;100406.55;251575;1105;116049;-65
2021/03/08 19:25:40;;;;;;;58.80;26.03;;;;;;;-1.54;68.43;100411.40;252742;1105;116064;-66
2021/03/08 19:30:44;;;;;;;57.08;22.80;;;;;;;-1.68;67.26;100411.81;251346;1105;116439;-66
2021/03/08 19:35:50;;;;;;;55.80;26.70;;;;;;;-1.85;67.87;100415.15;253139;1105;115730;-67
2021/03/08 19:40:54;;;;;;;102.23;39.87;;;;;;;-1.87;67.40;100406.63;253760;1105;116724;-66
2021/03/08 19:45:58;;;;;;;71.70;29.55;;;;;;;-1.87;66.97;100420.51;252693;1104;116592;-66
2021/03/08 19:51:04;;;;;;;71.92;27.55;;;;;;;-1.93;68.78;100422.84;251999;1104;116757;-64
2021/03/08 19:56:07;;;;;;;69.55;27.65;;;;;;;-2.05;69.18;100422.97;253531;1105;116717;-64
2021/03/08 20:01:11;;;;;;;58.33;21.33;;;;;;;-2.18;69.09;100429.44;253391;1105;118701;-64
2021/03/08 20:06:15;;;;;;;49.15;20.57;;;;;;;-2.25;69.28;100428.32;254530;1104;117527;-65
2021/03/08 20:11:19;;;;;;;45.03;21.62;;;;;;;-2.36;69.57;100429.25;254574;1105;116794;-64
2021/03/08 20:16:24;;;;;;;28.83;16.27;;;;;;;-2.37;70.47;100425.81;254554;1105;116779;-64
2021/03/08 20:21:28;;;;;;;40.52;16.10;;;;;;;-2.34;69.99;100423.90;251612;1105;116680;-64
2021/03/08 20:26:32;;;;;;;30.90;17.12;;;;;;;-2.39;70.78;100425.12;253677;1104;118494;-62
2021/03/08 20:31:42;;;;;;;36.33;14.00;;;;;;;-2.43;69.90;100422.91;252660;1105;116778;-65
2021/03/08 20:36:47;;;;;;;26.40;16.20;;;;;;;-2.53;70.23;100433.36;251752;1105;116492;-64
2021/03/08 20:41:51;;;;;;;27.40;13.13;;;;;;;-2.58;69.48;100438.14;252868;1105;117803;-65
2021/03/08 20:46:55;;;;;;;25.90;13.62;;;;;;;-2.62;70.46;100435.93;252283;1105;118363;-65
2021/03/08 20:51:59;;;;;;;24.45;12.73;;;;;;;-2.70;72.21;100444.41;251964;1104;116757;-63
2021/03/08 20:57:02;;;;;;;25.05;12.73;;;;;;;-2.81;71.10;100442.75;253291;1104;116035;-63
2021/03/08 21:02:05;;;;;;;20.77;11.40;;;;;;;-2.85;70.79;100445.75;253339;1105;117475;-63
2021/03/08 21:07:08;;;;;;;20.85;11.40;;;;;;;-2.83;71.33;100443.84;252325;1105;115794;-62
2021/03/08 21:12:12;;;;;;;35.68;16.62;;;;;;;-2.84;72.86;100439.57;252749;1105;115779;-63
2021/03/08 21:17:18;;;;;;;46.88;19.12;;;;;;;-2.92;74.33;100436.78;252820;1105;117191;-61
2021/03/08 21:22:22;;;;;;;51.73;22.37;;;;;;;-2.95;73.41;100437.05;252652;1104;116262;-62
2021/03/08 21:27:27;;;;;;;59.85;27.65;;;;;;;-2.98;74.05;100453.78;252457;1105;116251;-62
2021/03/08 21:32:31;;;;;;;48.00;22.83;;;;;;;-2.97;74.63;100436.34;252984;1104;117059;-64
2021/03/08 21:37:37;;;;;;;35.95;17.80;;;;;;;-2.96;74.92;100448.44;252302;1105;116554;-63
2021/03/08 21:42:41;;;;;;;34.63;16.70;;;;;;;-2.95;75.72;100442.26;251799;1105;116002;-61
2021/03/08 21:47:46;;;;;;;40.85;19.95;;;;;;;-2.98;76.10;100445.95;251856;1105;117140;-62
2021/03/08 21:52:50;;;;;;;35.08;17.05;;;;;;;-3.10;75.30;100442.62;253150;1104;115299;-62
2021/03/08 21:57:54;;;;;;;42.70;19.75;;;;;;;-3.13;78.59;100442.88;253343;1105;115842;-64
2021/03/08 22:03:03;;;;;;;76.77;33.28;;;;;;;-3.10;79.07;100447.84;253729;1104;115460;-62
2021/03/08 22:08:06;;;;;;;712.77;329.55;;;;;;;-3.02;76.97;100447.17;254774;1105;115053;-63
2021/03/08 22:13:10;;;;;;;199.70;75.75;;;;;;;-2.93;76.13;100443.78;254656;1105;115583;-63
2021/03/08 22:18:13;;;;;;;43.05;20.77;;;;;;;-2.82;76.56;100440.27;253888;1104;116256;-63
2021/03/08 22:23:17;;;;;;;36.40;18.20;;;;;;;-2.81;75.67;100437.53;254345;1105;115842;-62
2021/03/08 22:28:21;;;;;;;53.83;19.43;;;;;;;-2.81;76.88;100440.14;254223;1105;115248;-64
2021/03/08 22:33:26;;;;;;;31.63;16.60;;;;;;;-2.78;76.39;100437.27;253027;1105;115281;-61
2021/03/08 22:38:29;;;;;;;39.20;19.48;;;;;;;-2.81;76.92;100442.75;253084;1104;115342;-63
2021/03/08 22:43:36;;;;;;;51.47;22.73;;;;;;;-2.83;77.30;100449.88;251626;1105;116344;-61
2021/03/08 22:48:50;;;;;;;52.70;22.95;;;;;;;-2.93;77.68;100445.56;252067;1105;116359;-63
2021/03/08 22:53:54;;;;;;;37.88;19.45;;;;;;;-2.96;78.75;100453.65;252399;1105;115811;-65
2021/03/08 22:58:58;;;;;;;47.58;22.32;;;;;;;-2.99;77.54;100452.12;253696;1104;115186;-62
2021/03/08 23:04:02;;;;;;;35.28;19.17;;;;;;;-3.07;79.57;100442.37;252190;1105;115991;-62
2021/03/08 23:09:07;;;;;;;58.48;23.50;;;;;;;-3.10;77.00;100442.62;253048;1105;116128;-63
2021/03/08 23:14:11;;;;;;;55.45;23.40;;;;;;;-3.09;77.03;100446.06;252672;1105;115359;-64